createdAt,value
2018-09-25T00:00:44.860Z,100929.73
2018-09-25T00:01:27.967Z,100932.69
2018-09-25T00:02:12.055Z,100940.78
2018-09-25T00:02:55.156Z,100935.38
2018-09-25T00:03:38.210Z,100939.70
2018-09-25T00:04:21.820Z,100940.22
2018-09-25T00:05:11.927Z,100939.94
2018-09-25T00:05:55.136Z,100943.44
2018-09-25T00:06:40.617Z,100942.35
2018-09-25T00:07:24.532Z,100940.45
2018-09-25T00:08:07.629Z,100942.06
2018-09-25T00:08:51.763Z,100941.23
2018-09-25T00:09:36.086Z,100939.89
2018-09-25T00:10:19.365Z,100941.77
2018-09-25T00:11:02.465Z,100936.61
2018-09-25T00:11:45.344Z,100942.52
2018-09-25T00:12:29.674Z,100945.74
2018-09-25T00:13:12.589Z,100942.22
2018-09-25T00:13:55.619Z,100946.00
2018-09-25T00:14:38.505Z,100948.73
2018-09-25T00:15:21.599Z,100944.94
2018-09-25T00:16:05.536Z,100946.83
2018-09-25T00:16:49.467Z,100946.02
2018-09-25T00:17:32.111Z,100953.31
2018-09-25T00:18:14.769Z,100946.05
2018-09-25T00:18:58.228Z,100939.07
2018-09-25T00:19:42.235Z,100948.18
2018-09-25T00:20:24.879Z,100950.02
2018-09-25T00:21:07.762Z,100948.91
2018-09-25T00:21:50.100Z,100956.44
2018-09-25T00:22:32.026Z,100957.73
2018-09-25T00:23:14.316Z,100955.04
2018-09-25T00:23:57.481Z,100952.05
2018-09-25T00:24:39.462Z,100963.00
2018-09-25T00:25:21.569Z,100963.78
2018-09-25T00:26:03.739Z,100956.00
2018-09-25T00:26:45.739Z,100962.44
2018-09-25T00:27:27.782Z,100960.54
2018-09-25T00:28:09.885Z,100962.44
2018-09-25T00:28:52.143Z,100965.68
2018-09-25T00:29:34.082Z,100964.88
2018-09-25T00:30:16.169Z,100968.13
2018-09-25T00:30:57.964Z,100968.38
2018-09-25T00:31:40.023Z,100972.42
2018-09-25T00:32:22.187Z,100966.77
2018-09-25T00:33:05.129Z,100969.18
2018-09-25T00:33:47.441Z,100961.39
2018-09-25T00:34:29.512Z,100967.03
2018-09-25T00:35:11.611Z,100970.53
2018-09-25T00:35:53.887Z,100969.73
2018-09-25T00:36:35.900Z,100973.23
2018-09-25T00:37:18.144Z,100979.94
2018-09-25T00:38:00.134Z,100979.08
2018-09-25T00:38:41.914Z,100982.23
2018-09-25T00:39:24.900Z,100980.08
2018-09-25T00:40:06.790Z,100984.94
2018-09-25T00:40:48.774Z,100980.34
2018-09-25T00:41:30.760Z,100975.28
2018-09-25T00:42:12.978Z,100980.59
2018-09-25T00:42:55.104Z,100982.75
2018-09-25T00:43:37.149Z,100981.63
2018-09-25T00:44:19.118Z,100979.64
2018-09-25T00:45:01.973Z,100980.31
2018-09-25T00:45:46.584Z,100975.30
2018-09-25T00:46:28.622Z,100975.95
2018-09-25T00:47:11.685Z,100974.16
2018-09-25T00:47:54.645Z,100975.36
2018-09-25T00:48:37.714Z,100973.85
2018-09-25T00:49:19.695Z,100976.51
2018-09-25T00:50:01.768Z,100964.28
2018-09-25T00:50:43.937Z,100980.35
2018-09-25T00:51:26.009Z,100972.95
2018-09-25T00:52:08.163Z,100974.42
2018-09-25T00:52:50.330Z,100973.22
2018-09-25T00:53:32.341Z,100977.70
2018-09-25T00:54:15.303Z,100977.36
2018-09-25T00:54:57.188Z,100978.84
2018-09-25T00:55:39.095Z,100977.55
2018-09-25T00:56:24.145Z,100982.27
2018-09-25T00:57:06.117Z,100985.41
2018-09-25T00:57:48.204Z,100978.80
2018-09-25T00:58:30.141Z,100984.06
2018-09-25T00:59:16.650Z,100986.13
2018-09-25T00:59:58.925Z,100987.08
2018-09-25T01:00:40.899Z,100986.97
2018-09-25T01:01:23.062Z,100990.69
2018-09-25T01:02:05.363Z,100987.09
2018-09-25T01:02:47.329Z,100986.44
2018-09-25T01:03:29.304Z,100984.97
2018-09-25T01:04:11.334Z,100992.50
2018-09-25T01:04:53.380Z,100988.67
2018-09-25T01:05:35.472Z,100992.39
2018-09-25T01:06:17.468Z,100995.84
2018-09-25T01:06:59.436Z,100997.98
2018-09-25T01:07:41.813Z,100996.63
2018-09-25T01:08:23.923Z,101009.82
2018-09-25T01:09:05.800Z,101005.39
2018-09-25T01:09:47.646Z,101008.77
2018-09-25T01:10:30.661Z,101008.07
2018-09-25T01:11:12.601Z,101012.46
2018-09-25T01:11:54.760Z,101015.86
2018-09-25T01:12:36.822Z,101015.86
2018-09-25T01:13:18.821Z,101020.09
2018-09-25T01:14:00.874Z,101017.50
2018-09-25T01:14:43.824Z,101022.56
2018-09-25T01:15:25.753Z,101021.75
2018-09-25T01:16:07.931Z,101022.56
2018-09-25T01:16:50.152Z,101019.84
2018-09-25T01:17:32.170Z,101024.16
2018-09-25T01:18:14.175Z,101024.22
2018-09-25T01:18:56.353Z,101019.66
2018-09-25T01:19:38.551Z,101025.14
2018-09-25T01:20:21.119Z,101022.68
2018-09-25T01:21:03.074Z,101024.95
2018-09-25T01:21:45.284Z,101025.60
2018-09-25T01:22:27.316Z,101025.60
2018-09-25T01:23:09.237Z,101018.52
2018-09-25T01:23:52.121Z,101025.91
2018-09-25T01:24:35.456Z,101030.28
2018-09-25T01:25:18.387Z,101019.19
2018-09-25T01:26:00.176Z,101029.09
2018-09-25T01:26:42.993Z,101030.63
2018-09-25T01:27:24.881Z,101034.89
2018-09-25T01:28:07.848Z,101037.61
2018-09-25T01:28:49.720Z,101033.16
2018-09-25T01:29:31.864Z,101036.82
2018-09-25T01:30:13.782Z,101036.19
2018-09-25T01:30:56.228Z,101035.01
2018-09-25T01:31:38.469Z,101034.53
2018-09-25T01:32:20.697Z,101033.29
2018-09-25T01:33:03.626Z,101040.16
2018-09-25T01:33:45.595Z,101043.72
2018-09-25T01:34:27.941Z,101044.33
2018-09-25T01:35:09.895Z,101046.01
2018-09-25T01:35:52.882Z,101047.22
2018-09-25T01:36:35.201Z,101044.36
2018-09-25T01:37:17.187Z,101050.20
2018-09-25T01:37:59.092Z,101052.17
2018-09-25T01:38:41.774Z,101058.30
2018-09-25T01:39:23.951Z,101056.78
2018-09-25T01:40:06.111Z,101059.31
2018-09-25T01:40:48.300Z,101056.67
2018-09-25T01:41:30.290Z,101057.31
2018-09-25T01:42:12.361Z,101062.83
2018-09-25T01:42:54.368Z,101062.12
2018-09-25T01:43:36.346Z,101061.07
2018-09-25T01:44:18.571Z,101063.36
2018-09-25T01:45:00.564Z,101060.16
2018-09-25T01:45:42.534Z,101065.86
2018-09-25T01:46:24.545Z,101067.27
2018-09-25T01:47:06.407Z,101073.78
2018-09-25T01:47:48.331Z,101065.70
2018-09-25T01:48:30.260Z,101066.00
2018-09-25T01:49:12.933Z,101067.16
2018-09-25T01:49:54.811Z,101068.50
2018-09-25T01:50:37.579Z,101068.25
2018-09-25T01:51:19.553Z,101067.45
2018-09-25T01:52:01.513Z,101072.62
2018-09-25T01:52:46.067Z,101069.91
2018-09-25T01:53:27.864Z,101071.27
2018-09-25T01:54:09.872Z,101069.91
2018-09-25T01:54:51.732Z,101070.17
2018-09-25T01:55:35.876Z,101072.33
2018-09-25T01:56:18.243Z,101069.11
2018-09-25T01:57:00.142Z,101069.36
2018-09-25T01:57:42.050Z,101069.06
2018-09-25T01:58:23.892Z,101068.00
2018-09-25T01:59:05.848Z,101066.90
2018-09-25T01:59:47.875Z,101073.41
2018-09-25T02:00:30.241Z,101073.66
2018-09-25T02:01:12.439Z,101073.38
2018-09-25T02:01:54.437Z,101071.77
2018-09-25T02:02:36.283Z,101072.11
2018-09-25T02:03:18.219Z,101076.47
2018-09-25T02:04:00.132Z,101074.31
2018-09-25T02:04:42.041Z,101076.77
2018-09-25T02:05:24.103Z,101080.31
2018-09-25T02:06:06.386Z,101079.80
2018-09-25T02:06:48.672Z,101082.26
2018-09-25T02:07:31.008Z,101083.61
2018-09-25T02:08:13.432Z,101083.91
2018-09-25T02:08:55.423Z,101081.55
2018-09-25T02:09:37.428Z,101080.73
2018-09-25T02:10:19.366Z,101084.25
2018-09-25T02:11:06.383Z,101079.09
2018-09-25T02:11:48.404Z,101086.48
2018-09-25T02:12:30.208Z,101083.74
2018-09-25T02:13:12.477Z,101084.33
2018-09-25T02:13:55.107Z,101083.48
2018-09-25T02:14:37.293Z,101084.55
2018-09-25T02:15:23.814Z,101086.99
2018-09-25T02:16:06.271Z,101091.02
2018-09-25T02:16:48.050Z,101083.66
2018-09-25T02:17:31.032Z,101089.61
2018-09-25T02:18:13.370Z,101088.52
2018-09-25T02:19:01.393Z,101090.93
2018-09-25T02:20:00.045Z,101088.18
2018-09-25T02:20:42.767Z,101083.10
2018-09-25T02:21:25.772Z,101084.72
2018-09-25T02:22:12.099Z,101085.81
2018-09-25T02:22:54.316Z,101084.16
2018-09-25T02:23:36.179Z,101089.28
2018-09-25T02:24:20.113Z,101074.69
2018-09-25T02:25:02.203Z,101082.73
2018-09-25T02:25:45.344Z,101084.51
2018-09-25T02:26:33.618Z,101083.09
2018-09-25T02:27:16.585Z,101086.77
2018-09-25T02:27:58.583Z,101088.75
2018-09-25T02:28:40.466Z,101083.19
2018-09-25T02:29:22.462Z,101087.21
2018-09-25T02:30:05.430Z,101085.55
2018-09-25T02:30:47.411Z,101081.06
2018-09-25T02:31:29.299Z,101079.01
2018-09-25T02:32:12.206Z,101075.02
2018-09-25T02:32:54.331Z,101078.55
2018-09-25T02:33:36.404Z,101077.14
2018-09-25T02:34:22.392Z,101074.97
2018-09-25T02:35:04.283Z,101072.84
2018-09-25T02:35:47.098Z,101077.78
2018-09-25T02:36:33.337Z,101079.78
2018-09-25T02:37:15.313Z,101078.22
2018-09-25T02:37:57.164Z,101080.14
2018-09-25T02:38:39.123Z,101076.00
2018-09-25T02:39:21.263Z,101075.69
2018-09-25T02:40:03.447Z,101073.02
2018-09-25T02:40:45.223Z,101072.39
2018-09-25T02:41:27.354Z,101075.53
2018-09-25T02:42:09.519Z,101078.66
2018-09-25T02:42:51.430Z,101078.40
2018-09-25T02:43:33.230Z,101073.52
2018-09-25T02:44:15.392Z,101072.34
2018-09-25T02:44:57.332Z,101076.50
2018-09-25T02:45:39.266Z,101071.13
2018-09-25T02:46:21.303Z,101073.36
2018-09-25T02:47:03.271Z,101073.12
2018-09-25T02:47:45.213Z,101068.80
2018-09-25T02:48:28.185Z,101074.34
2018-09-25T02:49:10.011Z,101075.14
2018-09-25T02:49:52.116Z,101074.03
2018-09-25T02:50:34.279Z,101080.52
2018-09-25T02:51:16.685Z,101077.55
2018-09-25T02:51:58.794Z,101076.02
2018-09-25T02:52:40.616Z,101078.88
2018-09-25T02:53:22.441Z,101075.71
2018-09-25T02:54:04.815Z,101076.34
2018-09-25T02:54:46.633Z,101072.95
2018-09-25T02:55:28.944Z,101071.91
2018-09-25T02:56:11.139Z,101079.88
2018-09-25T02:56:53.085Z,101071.10
2018-09-25T02:57:35.173Z,101071.30
2018-09-25T02:58:17.151Z,101072.30
2018-09-25T02:58:59.064Z,101072.37
2018-09-25T02:59:40.969Z,101072.88
2018-09-25T03:00:22.939Z,101071.95
2018-09-25T03:01:05.257Z,101074.83
2018-09-25T03:01:47.833Z,101076.00
2018-09-25T03:02:30.250Z,101073.09
2018-09-25T03:03:12.289Z,101075.07
2018-09-25T03:03:54.429Z,101076.48
2018-09-25T03:04:36.431Z,101079.51
2018-09-25T03:05:18.394Z,101077.16
2018-09-25T03:06:00.309Z,101078.02
2018-09-25T03:06:42.170Z,101073.18
2018-09-25T03:07:24.004Z,101073.20
2018-09-25T03:08:06.064Z,101072.22
2018-09-25T03:08:48.065Z,101075.55
2018-09-25T03:09:30.349Z,101077.20
2018-09-25T03:10:12.886Z,101077.02
2018-09-25T03:10:54.814Z,101072.51
2018-09-25T03:11:37.963Z,101079.93
2018-09-25T03:12:20.692Z,101072.45
2018-09-25T03:13:02.701Z,101075.78
2018-09-25T03:13:44.677Z,101080.45
2018-09-25T03:14:26.746Z,101077.00
2018-09-25T03:15:08.714Z,101076.50
2018-09-25T03:15:50.531Z,101078.16
2018-09-25T03:16:32.494Z,101071.66
2018-09-25T03:17:20.289Z,101076.33
2018-09-25T03:18:02.190Z,101074.72
2018-09-25T03:18:44.401Z,101082.06
2018-09-25T03:19:26.607Z,101071.52
2018-09-25T03:20:08.501Z,101078.90
2018-09-25T03:20:50.383Z,101075.66
2018-09-25T03:21:32.397Z,101077.02
2018-09-25T03:22:14.303Z,101073.05
2018-09-25T03:22:56.332Z,101071.45
2018-09-25T03:23:38.431Z,101075.34
2018-09-25T03:24:20.855Z,101077.05
2018-09-25T03:25:02.857Z,101077.66
2018-09-25T03:25:44.796Z,101075.04
2018-09-25T03:26:26.716Z,101080.46
2018-09-25T03:27:08.848Z,101078.86
2018-09-25T03:27:50.711Z,101082.97
2018-09-25T03:28:32.802Z,101076.00
2018-09-25T03:29:14.740Z,101077.92
2018-09-25T03:29:56.818Z,101070.39
2018-09-25T03:30:39.797Z,101076.37
2018-09-25T03:31:21.659Z,101080.43
2018-09-25T03:32:03.499Z,101074.81
2018-09-25T03:32:45.504Z,101080.48
2018-09-25T03:33:27.435Z,101075.91
2018-09-25T03:34:09.394Z,101073.45
2018-09-25T03:34:51.691Z,101072.40
2018-09-25T03:35:33.874Z,101076.47
2018-09-25T03:36:15.768Z,101073.20
2018-09-25T03:36:57.731Z,101069.39
2018-09-25T03:37:40.620Z,101071.25
2018-09-25T03:38:22.580Z,101072.30
2018-09-25T03:39:04.587Z,101071.75
2018-09-25T03:39:46.448Z,101071.70
2018-09-25T03:40:28.639Z,101068.69
2018-09-25T03:41:10.626Z,101067.61
2018-09-25T03:41:52.816Z,101073.03
2018-09-25T03:42:34.920Z,101067.61
2018-09-25T03:43:16.947Z,101066.51
2018-09-25T03:44:01.672Z,101060.23
2018-09-25T03:44:45.267Z,101064.55
2018-09-25T03:45:27.845Z,101059.88
2018-09-25T03:46:09.896Z,101058.22
2018-09-25T03:46:52.068Z,101055.56
2018-09-25T03:47:34.972Z,101056.56
2018-09-25T03:48:16.858Z,101050.09
2018-09-25T03:48:58.944Z,101052.25
2018-09-25T03:49:41.832Z,101051.75
2018-09-25T03:50:23.813Z,101044.67
2018-09-25T03:51:05.817Z,101047.94
2018-09-25T03:51:47.675Z,101046.08
2018-09-25T03:52:29.513Z,101045.88
2018-09-25T03:53:11.576Z,101046.93
2018-09-25T03:53:53.676Z,101042.91
2018-09-25T03:54:35.811Z,101043.97
2018-09-25T03:55:17.867Z,101046.93
2018-09-25T03:55:59.763Z,101049.39
2018-09-25T03:56:41.885Z,101038.06
2018-09-25T03:57:23.971Z,101045.65
2018-09-25T03:58:05.933Z,101044.30
2018-09-25T03:58:47.955Z,101048.64
2018-09-25T03:59:31.033Z,101045.93
2018-09-25T04:00:14.014Z,101044.57
2018-09-25T04:00:55.863Z,101045.08
2018-09-25T04:01:37.965Z,101035.91
2018-09-25T04:02:20.706Z,101039.09
2018-09-25T04:03:03.791Z,101041.76
2018-09-25T04:03:45.919Z,101039.55
2018-09-25T04:04:27.980Z,101038.69
2018-09-25T04:05:10.498Z,101035.23
2018-09-25T04:05:52.466Z,101038.19
2018-09-25T04:06:34.355Z,101036.84
2018-09-25T04:07:16.264Z,101038.00
2018-09-25T04:07:58.135Z,101032.58
2018-09-25T04:08:40.041Z,101035.59
2018-09-25T04:09:22.015Z,101035.84
2018-09-25T04:10:04.922Z,101042.27
2018-09-25T04:10:47.530Z,101039.80
2018-09-25T04:11:29.693Z,101037.28
2018-09-25T04:12:11.589Z,101036.13
2018-09-25T04:12:53.635Z,101041.25
2018-09-25T04:13:35.507Z,101038.23
2018-09-25T04:14:17.447Z,101041.42
2018-09-25T04:14:59.388Z,101038.66
2018-09-25T04:15:41.675Z,101032.88
2018-09-25T04:16:23.504Z,101035.78
2018-09-25T04:17:05.819Z,101036.00
2018-09-25T04:17:47.820Z,101031.08
2018-09-25T04:18:29.759Z,101035.59
2018-09-25T04:19:11.747Z,101029.58
2018-09-25T04:19:53.658Z,101029.77
2018-09-25T04:20:35.735Z,101033.23
2018-09-25T04:21:17.630Z,101034.47
2018-09-25T04:21:59.511Z,101028.44
2018-09-25T04:22:41.566Z,101025.60
2018-09-25T04:23:23.524Z,101026.87
2018-09-25T04:24:05.431Z,101021.57
2018-09-25T04:24:47.294Z,101023.42
2018-09-25T04:25:29.125Z,101024.34
2018-09-25T04:26:11.030Z,101026.20
2018-09-25T04:26:52.921Z,101023.36
2018-09-25T04:27:34.927Z,101023.55
2018-09-25T04:28:16.990Z,101020.39
2018-09-25T04:28:59.171Z,101022.24
2018-09-25T04:29:41.271Z,101019.40
2018-09-25T04:30:23.716Z,101019.05
2018-09-25T04:31:05.886Z,101022.27
2018-09-25T04:31:47.758Z,101017.32
2018-09-25T04:32:29.648Z,101023.73
2018-09-25T04:33:11.696Z,101014.72
2018-09-25T04:33:55.087Z,101020.89
2018-09-25T04:34:37.294Z,101017.30
2018-09-25T04:35:19.278Z,101015.39
2018-09-25T04:36:01.239Z,101011.52
2018-09-25T04:36:43.200Z,101009.05
2018-09-25T04:37:25.126Z,101011.17
2018-09-25T04:38:07.038Z,101008.56
2018-09-25T04:38:48.786Z,101000.52
2018-09-25T04:39:30.620Z,101000.66
2018-09-25T04:40:12.519Z,101002.98
2018-09-25T04:40:55.255Z,101003.47
2018-09-25T04:41:37.255Z,100998.52
2018-09-25T04:42:19.132Z,100997.02
2018-09-25T04:43:01.096Z,100993.67
2018-09-25T04:43:43.023Z,100991.69
2018-09-25T04:44:24.879Z,100994.77
2018-09-25T04:45:06.830Z,100988.39
2018-09-25T04:45:48.832Z,100990.43
2018-09-25T04:46:30.692Z,100985.56
2018-09-25T04:47:12.915Z,100987.36
2018-09-25T04:47:55.899Z,100977.13
2018-09-25T04:48:37.878Z,100980.18
2018-09-25T04:49:20.101Z,100983.63
2018-09-25T04:50:02.082Z,100975.09
2018-09-25T04:50:44.144Z,100975.58
2018-09-25T04:51:26.092Z,100973.90
2018-09-25T04:52:08.020Z,100973.58
2018-09-25T04:52:50.048Z,100974.05
2018-09-25T04:53:32.132Z,100970.45
2018-09-25T04:54:14.082Z,100965.97
2018-09-25T04:54:56.119Z,100970.01
2018-09-25T04:55:38.197Z,100966.33
2018-09-25T04:56:20.955Z,100962.91
2018-09-25T04:57:03.136Z,100967.06
2018-09-25T04:57:44.994Z,100954.73
2018-09-25T04:58:29.045Z,100956.41
2018-09-25T04:59:11.096Z,100952.98
2018-09-25T04:59:53.227Z,100957.62
2018-09-25T05:00:35.336Z,100955.38
2018-09-25T05:01:17.559Z,100951.53
2018-09-25T05:01:59.552Z,100954.56
2018-09-25T05:02:41.671Z,100946.56
2018-09-25T05:03:23.972Z,100943.20
2018-09-25T05:04:05.967Z,100941.36
2018-09-25T05:04:47.861Z,100945.94
2018-09-25T05:05:30.112Z,100938.40
2018-09-25T05:06:12.235Z,100941.94
2018-09-25T05:06:54.108Z,100939.70
2018-09-25T05:07:35.905Z,100936.55
2018-09-25T05:08:17.856Z,100928.47
2018-09-25T05:08:59.782Z,100936.88
2018-09-25T05:09:41.901Z,100926.55
2018-09-25T05:10:23.928Z,100923.82
2018-09-25T05:11:05.958Z,100920.23
2018-09-25T05:11:48.146Z,100926.45
2018-09-25T05:12:30.298Z,100917.16
2018-09-25T05:13:12.403Z,100921.73
2018-09-25T05:13:54.476Z,100920.64
2018-09-25T05:14:36.680Z,100919.66
2018-09-25T05:15:18.641Z,100919.59
2018-09-25T05:16:00.896Z,100925.44
2018-09-25T05:16:42.738Z,100920.64
2018-09-25T05:17:24.787Z,100923.92
2018-09-25T05:18:06.883Z,100918.95
2018-09-25T05:18:48.881Z,100919.44
2018-09-25T05:19:30.813Z,100917.27
2018-09-25T05:20:12.923Z,100919.28
2018-09-25T05:20:55.122Z,100919.69
2018-09-25T05:21:37.404Z,100913.53
2018-09-25T05:22:19.407Z,100915.88
2018-09-25T05:23:01.387Z,100909.45
2018-09-25T05:23:43.511Z,100910.70
2018-09-25T05:24:25.404Z,100903.66
2018-09-25T05:25:07.602Z,100903.10
2018-09-25T05:25:49.565Z,100904.44
2018-09-25T05:26:31.376Z,100905.41
2018-09-25T05:27:13.518Z,100901.28
2018-09-25T05:27:55.491Z,100898.70
2018-09-25T05:28:37.562Z,100893.71
2018-09-25T05:29:19.643Z,100894.68
2018-09-25T05:30:01.823Z,100887.80
2018-09-25T05:30:43.794Z,100896.09
2018-09-25T05:31:25.727Z,100896.73
2018-09-25T05:32:07.773Z,100884.90
2018-09-25T05:32:49.687Z,100885.78
2018-09-25T05:33:31.570Z,100886.42
2018-09-25T05:34:13.480Z,100887.22
2018-09-25T05:34:55.684Z,100881.39
2018-09-25T05:35:37.543Z,100880.60
2018-09-25T05:36:19.526Z,100873.16
2018-09-25T05:37:01.962Z,100877.08
2018-09-25T05:37:43.845Z,100872.88
2018-09-25T05:38:25.727Z,100866.92
2018-09-25T05:39:07.831Z,100869.09
2018-09-25T05:39:49.779Z,100869.59
2018-09-25T05:40:31.611Z,100865.03
2018-09-25T05:41:13.727Z,100870.33
2018-09-25T05:41:55.612Z,100864.17
2018-09-25T05:42:37.691Z,100871.10
2018-09-25T05:43:19.944Z,100866.30
2018-09-25T05:44:02.087Z,100862.45
2018-09-25T05:44:44.029Z,100860.62
2018-09-25T05:45:26.046Z,100862.39
2018-09-25T05:46:08.047Z,100863.84
2018-09-25T05:46:50.084Z,100858.97
2018-09-25T05:47:32.078Z,100863.41
2018-09-25T05:48:14.043Z,100867.99
2018-09-25T05:48:56.110Z,100864.53
2018-09-25T05:49:38.229Z,100866.63
2018-09-25T05:50:20.827Z,100859.53
2018-09-25T05:51:02.797Z,100862.11
2018-09-25T05:51:44.744Z,100862.48
2018-09-25T05:52:26.969Z,100866.19
2018-09-25T05:53:08.865Z,100861.06
2018-09-25T05:53:50.949Z,100866.57
2018-09-25T05:54:32.816Z,100860.89
2018-09-25T05:55:14.889Z,100862.98
2018-09-25T05:55:57.345Z,100863.25
2018-09-25T05:56:39.425Z,100865.16
2018-09-25T05:57:21.412Z,100865.06
2018-09-25T05:58:03.448Z,100863.63
2018-09-25T05:58:45.552Z,100855.63
2018-09-25T05:59:27.678Z,100860.17
2018-09-25T06:00:09.604Z,100853.63
2018-09-25T06:00:51.664Z,100850.83
2018-09-25T06:01:34.074Z,100849.36
2018-09-25T06:02:16.209Z,100846.56
2018-09-25T06:02:58.188Z,100845.09
2018-09-25T06:03:40.514Z,100846.84
2018-09-25T06:04:22.438Z,100839.58
2018-09-25T06:05:04.423Z,100836.98
2018-09-25T06:05:46.392Z,100837.86
2018-09-25T06:06:28.503Z,100836.90
2018-09-25T06:07:10.400Z,100831.78
2018-09-25T06:07:52.513Z,100832.34
2018-09-25T06:08:35.497Z,100833.94
2018-09-25T06:09:17.541Z,100833.94
2018-09-25T06:09:59.605Z,100831.47
2018-09-25T06:10:42.103Z,100830.74
2018-09-25T06:11:24.060Z,100828.83
2018-09-25T06:12:05.927Z,100826.11
2018-09-25T06:12:47.947Z,100827.70
2018-09-25T06:13:29.933Z,100826.91
2018-09-25T06:14:12.488Z,100833.63
2018-09-25T06:14:54.633Z,100831.47
2018-09-25T06:15:37.605Z,100826.91
2018-09-25T06:16:19.569Z,100826.11
2018-09-25T06:17:01.551Z,100828.27
2018-09-25T06:17:43.447Z,100826.67
2018-09-25T06:18:25.488Z,100826.83
2018-09-25T06:19:07.446Z,100826.75
2018-09-25T06:19:49.408Z,100824.51
2018-09-25T06:20:31.338Z,100832.30
2018-09-25T06:21:13.267Z,100829.02
2018-09-25T06:21:55.536Z,100823.45
2018-09-25T06:22:37.471Z,100823.13
2018-09-25T06:23:19.530Z,100829.84
2018-09-25T06:24:01.695Z,100821.69
2018-09-25T06:24:43.681Z,100823.84
2018-09-25T06:25:25.585Z,100828.48
2018-09-25T06:26:07.499Z,100828.25
2018-09-25T06:26:50.620Z,100823.77
2018-09-25T06:27:32.742Z,100828.73
2018-09-25T06:28:14.746Z,100826.94
2018-09-25T06:28:56.832Z,100827.10
2018-09-25T06:29:39.120Z,100820.83
2018-09-25T06:30:21.246Z,100812.20
2018-09-25T06:31:03.249Z,100819.63
2018-09-25T06:31:45.130Z,100813.95
2018-09-25T06:32:27.134Z,100818.27
2018-09-25T06:33:09.179Z,100814.27
2018-09-25T06:33:51.214Z,100808.04
2018-09-25T06:34:33.059Z,100809.64
2018-09-25T06:35:15.144Z,100808.28
2018-09-25T06:35:57.929Z,100809.87
2018-09-25T06:36:40.067Z,100804.69
2018-09-25T06:37:22.044Z,100798.12
2018-09-25T06:38:04.234Z,100797.02
2018-09-25T06:38:46.106Z,100795.66
2018-09-25T06:39:29.493Z,100795.09
2018-09-25T06:40:11.726Z,100788.05
2018-09-25T06:40:53.734Z,100785.90
2018-09-25T06:41:35.943Z,100784.06
2018-09-25T06:42:17.844Z,100784.30
2018-09-25T06:43:00.239Z,100782.94
2018-09-25T06:43:42.160Z,100777.51
2018-09-25T06:44:24.364Z,100781.27
2018-09-25T06:45:06.352Z,100780.56
2018-09-25T06:45:48.316Z,100780.08
2018-09-25T06:46:30.449Z,100776.58
2018-09-25T06:47:12.567Z,100783.55
2018-09-25T06:47:54.587Z,100779.77
2018-09-25T06:48:36.552Z,100778.17
2018-09-25T06:49:18.573Z,100777.73
2018-09-25T06:50:00.469Z,100774.15
2018-09-25T06:50:42.510Z,100771.03
2018-09-25T06:51:24.409Z,100777.91
2018-09-25T06:52:06.409Z,100769.83
2018-09-25T06:52:48.304Z,100766.23
2018-09-25T06:53:30.475Z,100766.88
2018-09-25T06:54:12.431Z,100759.33
2018-09-25T06:54:54.497Z,100766.77
2018-09-25T06:55:36.685Z,100760.53
2018-09-25T06:56:18.782Z,100759.97
2018-09-25T06:57:00.743Z,100754.78
2018-09-25T06:57:42.801Z,100755.09
2018-09-25T06:58:25.604Z,100756.05
2018-09-25T06:59:07.800Z,100756.38
2018-09-25T06:59:49.927Z,100751.34
2018-09-25T07:00:31.917Z,100756.84
2018-09-25T07:01:14.026Z,100757.17
2018-09-25T07:01:56.039Z,100760.48
2018-09-25T07:02:37.985Z,100761.09
2018-09-25T07:03:19.975Z,100765.33
2018-09-25T07:04:01.905Z,100754.85
2018-09-25T07:04:43.716Z,100758.20
2018-09-25T07:05:25.829Z,100761.55
2018-09-25T07:06:08.026Z,100765.70
2018-09-25T07:06:50.005Z,100762.30
2018-09-25T07:07:32.216Z,100760.47
2018-09-25T07:08:14.473Z,100763.25
2018-09-25T07:08:56.431Z,100763.33
2018-09-25T07:09:39.096Z,100760.76
2018-09-25T07:10:21.118Z,100760.27
2018-09-25T07:11:03.110Z,100758.19
2018-09-25T07:11:45.036Z,100754.99
2018-09-25T07:12:26.947Z,100750.41
2018-09-25T07:13:08.809Z,100750.16
2018-09-25T07:13:50.668Z,100745.58
2018-09-25T07:14:32.582Z,100745.58
2018-09-25T07:15:14.552Z,100740.15
2018-09-25T07:15:56.437Z,100734.96
2018-09-25T07:16:38.484Z,100733.60
2018-09-25T07:17:20.411Z,100723.86
2018-09-25T07:18:02.364Z,100725.46
2018-09-25T07:18:44.523Z,100718.95
2018-09-25T07:19:26.461Z,100720.03
2018-09-25T07:20:08.508Z,100718.19
2018-09-25T07:20:50.623Z,100714.44
2018-09-25T07:21:32.611Z,100711.55
2018-09-25T07:22:14.602Z,100715.38
2018-09-25T07:22:56.534Z,100710.59
2018-09-25T07:23:38.489Z,100708.98
2018-09-25T07:24:21.150Z,100709.61
2018-09-25T07:25:03.136Z,100711.84
2018-09-25T07:25:45.451Z,100704.06
2018-09-25T07:26:27.651Z,100706.84
2018-09-25T07:27:09.708Z,100703.96
2018-09-25T07:27:51.577Z,100699.65
2018-09-25T07:28:34.576Z,100702.36
2018-09-25T07:29:17.645Z,100700.52
2018-09-25T07:29:59.766Z,100691.03
2018-09-25T07:30:41.688Z,100692.62
2018-09-25T07:31:23.589Z,100691.51
2018-09-25T07:32:05.446Z,100694.47
2018-09-25T07:32:47.260Z,100685.84
2018-09-25T07:33:29.226Z,100688.97
2018-09-25T07:34:11.368Z,100682.98
2018-09-25T07:34:53.276Z,100683.23
2018-09-25T07:35:35.696Z,100681.31
2018-09-25T07:36:17.648Z,100682.36
2018-09-25T07:36:59.573Z,100679.64
2018-09-25T07:37:41.617Z,100675.81
2018-09-25T07:38:23.521Z,100677.17
2018-09-25T07:39:05.669Z,100669.30
2018-09-25T07:39:47.763Z,100675.53
2018-09-25T07:40:30.016Z,100671.14
2018-09-25T07:41:12.050Z,100676.25
2018-09-25T07:41:54.087Z,100674.34
2018-09-25T07:42:36.067Z,100669.16
2018-09-25T07:43:18.143Z,100673.47
2018-09-25T07:44:00.120Z,100672.03
2018-09-25T07:44:42.035Z,100669.25
2018-09-25T07:45:24.036Z,100666.78
2018-09-25T07:46:06.023Z,100672.20
2018-09-25T07:46:48.752Z,100664.86
2018-09-25T07:47:34.656Z,100669.17
2018-09-25T07:48:17.588Z,100665.91
2018-09-25T07:48:59.597Z,100666.70
2018-09-25T07:49:41.708Z,100665.51
2018-09-25T07:50:23.866Z,100660.83
2018-09-25T07:51:06.272Z,100656.52
2018-09-25T07:51:49.214Z,100655.36
2018-09-25T07:52:31.096Z,100651.21
2018-09-25T07:53:13.112Z,100644.11
2018-09-25T07:53:55.220Z,100640.52
2018-09-25T07:54:37.170Z,100635.01
2018-09-25T07:55:19.260Z,100630.61
2018-09-25T07:56:01.280Z,100626.78
2018-09-25T07:56:43.205Z,100622.47
2018-09-25T07:57:25.295Z,100622.39
2018-09-25T07:58:08.056Z,100619.84
2018-09-25T07:58:50.125Z,100611.69
2018-09-25T07:59:32.019Z,100609.70
2018-09-25T08:00:14.100Z,100612.17
2018-09-25T08:00:55.993Z,100606.10
2018-09-25T08:01:37.811Z,100604.66
2018-09-25T08:02:20.858Z,100600.59
2018-09-25T08:03:02.899Z,100593.16